Time;durP1;ratioP1;P1;durP2;ratioP2;P2;SDS_P1;SDS_P2;PMS_P1;PMS_P2;Temp;Humidity;BMP_temperature;BMP_pressure;BME280_temperature;BME280_humidity;BME280_pressure;Samples;Min_cycle;Max_cycle;Signal;HPM_P1;HPM_P2
2022/04/13 00:00:02;;;;;;;10.32;5.82;;;;;;;;;;5011715;28;20041;-69
2022/04/13 00:02:28;;;;;;;8.90;5.13;;;;;;;;;;5012898;28;20106;-70
2022/04/13 00:04:53;;;;;;;11.48;5.50;;;;;;;;;;5009466;28;20038;-70
2022/04/13 00:07:18;;;;;;;13.00;5.82;;;;;;;;;;5008994;28;20474;-70
2022/04/13 00:09:44;;;;;;;9.25;4.90;;;;;;;;;;5009576;28;20018;-70
2022/04/13 00:12:09;;;;;;;14.98;5.90;;;;;;;;;;5008747;28;20475;-70
2022/04/13 00:14:35;;;;;;;17.25;5.25;;;;;;;;;;5009333;28;20038;-69
2022/04/13 00:17:00;;;;;;;10.60;5.30;;;;;;;;;;5007879;28;20615;-69
2022/04/13 00:19:26;;;;;;;9.57;5.13;;;;;;;;;;5007523;28;20125;-69
2022/04/13 00:21:51;;;;;;;13.82;6.80;;;;;;;;;;5009963;28;20025;-69
2022/04/13 00:24:16;;;;;;;9.77;5.55;;;;;;;;;;5009320;28;20052;-70
2022/04/13 00:26:42;;;;;;;13.00;5.43;;;;;;;;;;5009256;28;20081;-69
2022/04/13 00:29:07;;;;;;;13.07;5.88;;;;;;;;;;5008810;28;20034;-69
2022/04/13 00:31:33;;;;;;;11.70;5.40;;;;;;;;;;5009328;28;20057;-69
2022/04/13 00:33:58;;;;;;;7.35;5.30;;;;;;;;;;5006591;28;20022;-70
2022/04/13 00:36:24;;;;;;;8.52;5.38;;;;;;;;;;5009384;28;20021;-69
2022/04/13 00:38:49;;;;;;;11.68;5.72;;;;;;;;;;5008413;28;20034;-67
2022/04/13 00:41:17;;;;;;;9.38;5.57;;;;;;;;;;5009307;28;20089;-69
2022/04/13 00:43:42;;;;;;;12.20;5.85;;;;;;;;;;5016040;28;20555;-69
2022/04/13 00:46:07;;;;;;;12.32;6.75;;;;;;;;;;5008984;28;20046;-69
2022/04/13 00:48:39;;;;;;;10.38;6.07;;;;;;;;;;5007505;28;20155;-69
2022/04/13 00:51:05;;;;;;;9.63;5.47;;;;;;;;;;5006741;28;20042;-69
2022/04/13 00:53:34;;;;;;;10.77;5.05;;;;;;;;;;5008312;28;20108;-69
2022/04/13 00:56:01;;;;;;;10.00;5.25;;;;;;;;;;5008719;28;20034;-70
2022/04/13 00:58:27;;;;;;;17.63;5.38;;;;;;;;;;5011856;28;20487;-69
2022/04/13 01:00:57;;;;;;;9.32;5.70;;;;;;;;;;5008425;28;20029;-69
2022/04/13 01:03:24;;;;;;;12.38;5.63;;;;;;;;;;5018342;28;20076;-69
2022/04/13 01:05:51;;;;;;;8.30;5.10;;;;;;;;;;5008401;28;20044;-69
2022/04/13 01:08:20;;;;;;;12.38;6.05;;;;;;;;;;5001693;28;20033;-69
2022/04/13 01:10:47;;;;;;;11.98;6.75;;;;;;;;;;5008080;28;20503;-69
2022/04/13 01:13:13;;;;;;;10.85;6.22;;;;;;;;;;5007577;28;20042;-69
2022/04/13 01:15:39;;;;;;;11.40;6.00;;;;;;;;;;5008385;28;20529;-69
2022/04/13 01:18:05;;;;;;;13.20;6.65;;;;;;;;;;5008293;28;20030;-69
2022/04/13 01:20:30;;;;;;;13.05;6.45;;;;;;;;;;5008123;28;20045;-69
2022/04/13 01:22:56;;;;;;;11.57;6.20;;;;;;;;;;5010263;28;20046;-69
2022/04/13 01:25:21;;;;;;;11.13;5.53;;;;;;;;;;5008286;28;20063;-69
2022/04/13 01:27:47;;;;;;;11.55;5.53;;;;;;;;;;5008106;28;20164;-70
2022/04/13 01:30:13;;;;;;;9.75;5.50;;;;;;;;;;5008424;28;20034;-69
2022/04/13 01:32:38;;;;;;;10.40;5.82;;;;;;;;;;5008156;28;20037;-69
2022/04/13 01:35:04;;;;;;;12.05;6.03;;;;;;;;;;5008015;28;20042;-69
2022/04/13 01:37:30;;;;;;;11.25;6.15;;;;;;;;;;5005333;28;20041;-69
2022/04/13 01:39:55;;;;;;;11.23;6.05;;;;;;;;;;4995105;28;20518;-69
2022/04/13 01:42:21;;;;;;;11.18;5.78;;;;;;;;;;5008846;28;20022;-69
2022/04/13 01:44:48;;;;;;;8.82;5.70;;;;;;;;;;5007361;28;20037;-69
2022/04/13 01:47:14;;;;;;;8.70;5.50;;;;;;;;;;5008190;28;20129;-70
2022/04/13 01:49:39;;;;;;;11.70;5.78;;;;;;;;;;5007508;28;20061;-69
2022/04/13 01:52:05;;;;;;;11.85;5.78;;;;;;;;;;5007062;28;20061;-69
2022/04/13 01:54:31;;;;;;;9.60;5.60;;;;;;;;;;5008281;28;20049;-69
2022/04/13 01:56:57;;;;;;;11.60;5.28;;;;;;;;;;5008501;28;20652;-69
2022/04/13 01:59:22;;;;;;;14.60;5.88;;;;;;;;;;5007775;28;20038;-69
2022/04/13 02:01:48;;;;;;;10.15;5.55;;;;;;;;;;5006585;28;20589;-69
2022/04/13 02:04:21;;;;;;;13.05;6.72;;;;;;;;;;5016172;28;20471;-69
2022/04/13 02:06:48;;;;;;;10.25;6.45;;;;;;;;;;5007110;28;20088;-69
2022/04/13 02:09:14;;;;;;;12.45;6.40;;;;;;;;;;5005352;28;20514;-69
2022/04/13 02:11:40;;;;;;;10.30;5.95;;;;;;;;;;4999442;28;20419;-69
2022/04/13 02:14:06;;;;;;;13.88;6.38;;;;;;;;;;5006376;28;20607;-69
2022/04/13 02:16:31;;;;;;;11.52;6.38;;;;;;;;;;5006997;28;20041;-69
2022/04/13 02:18:57;;;;;;;15.23;6.60;;;;;;;;;;5006874;28;20034;-69
2022/04/13 02:21:22;;;;;;;11.48;6.07;;;;;;;;;;5011121;28;20023;-69
2022/04/13 02:23:48;;;;;;;10.75;5.45;;;;;;;;;;5012355;28;20044;-69
2022/04/13 02:26:13;;;;;;;10.68;6.32;;;;;;;;;;5004775;28;20040;-69
2022/04/13 02:28:38;;;;;;;8.35;5.38;;;;;;;;;;5003426;28;20048;-69
2022/04/13 02:31:04;;;;;;;11.82;5.35;;;;;;;;;;5007820;28;20114;-69
2022/04/13 02:33:31;;;;;;;10.32;5.80;;;;;;;;;;5007785;28;20038;-69
2022/04/13 02:35:58;;;;;;;10.70;5.43;;;;;;;;;;4994088;28;20026;-69
2022/04/13 02:38:23;;;;;;;13.13;5.57;;;;;;;;;;5007514;28;20034;-69
2022/04/13 02:40:50;;;;;;;11.65;5.88;;;;;;;;;;5005640;28;20034;-69
2022/04/13 02:43:15;;;;;;;10.10;6.05;;;;;;;;;;5011891;28;20063;-69
2022/04/13 02:45:41;;;;;;;10.07;5.60;;;;;;;;;;5008336;28;20483;-69
2022/04/13 02:48:07;;;;;;;11.60;5.60;;;;;;;;;;5006699;28;20555;-69
2022/04/13 02:50:33;;;;;;;13.77;5.80;;;;;;;;;;5007638;28;20030;-69
2022/04/13 02:52:59;;;;;;;8.50;6.18;;;;;;;;;;5006865;28;20092;-69
2022/04/13 02:55:24;;;;;;;10.23;6.05;;;;;;;;;;5007495;28;20038;-70
2022/04/13 02:57:49;;;;;;;10.85;5.88;;;;;;;;;;5007291;28;20037;-69
2022/04/13 03:00:15;;;;;;;15.05;6.63;;;;;;;;;;5006505;28;20036;-69
2022/04/13 03:02:41;;;;;;;16.02;7.20;;;;;;;;;;5012084;28;20041;-69
2022/04/13 03:05:07;;;;;;;14.30;7.25;;;;;;;;;;5009907;28;20046;-70
2022/04/13 03:07:33;;;;;;;20.58;7.72;;;;;;;;;;5007450;28;20073;-69
2022/04/13 03:09:59;;;;;;;15.98;7.60;;;;;;;;;;5007001;28;20486;-69
2022/04/13 03:12:25;;;;;;;13.32;7.38;;;;;;;;;;5006698;28;20035;-69
2022/04/13 03:14:51;;;;;;;13.02;7.38;;;;;;;;;;5007229;28;20648;-69
2022/04/13 03:17:16;;;;;;;17.10;7.55;;;;;;;;;;5006548;28;20125;-69
2022/04/13 03:19:41;;;;;;;12.27;7.47;;;;;;;;;;5007506;28;20515;-69
2022/04/13 03:22:07;;;;;;;10.00;6.35;;;;;;;;;;5008823;28;20042;-69
2022/04/13 03:24:34;;;;;;;15.07;6.95;;;;;;;;;;5007368;28;20026;-69
2022/04/13 03:26:59;;;;;;;11.23;6.53;;;;;;;;;;5006849;28;20046;-69
2022/04/13 03:29:25;;;;;;;12.63;6.47;;;;;;;;;;5007191;28;20556;-69
2022/04/13 03:31:50;;;;;;;11.50;6.13;;;;;;;;;;5006557;28;20392;-69
2022/04/13 03:34:20;;;;;;;12.55;6.50;;;;;;;;;;5006641;28;20416;-69
2022/04/13 03:36:48;;;;;;;10.65;6.43;;;;;;;;;;5006814;28;20024;-69
2022/04/13 03:39:14;;;;;;;11.20;6.32;;;;;;;;;;5005279;28;20041;-69
2022/04/13 03:41:39;;;;;;;14.70;7.38;;;;;;;;;;5006828;28;20046;-69
2022/04/13 03:44:05;;;;;;;14.52;6.32;;;;;;;;;;5011429;28;20046;-69
2022/04/13 03:46:31;;;;;;;11.93;6.30;;;;;;;;;;5005209;28;20037;-69
2022/04/13 03:48:57;;;;;;;10.90;6.43;;;;;;;;;;5006402;28;20036;-69
2022/04/13 03:51:22;;;;;;;13.52;6.82;;;;;;;;;;5007125;28;20025;-69
2022/04/13 03:53:47;;;;;;;14.35;7.00;;;;;;;;;;5003631;28;20117;-69
2022/04/13 03:56:13;;;;;;;12.23;6.80;;;;;;;;;;5006632;28;20080;-69
2022/04/13 03:58:40;;;;;;;13.35;7.10;;;;;;;;;;5006729;28;20046;-69
2022/04/13 04:01:09;;;;;;;9.32;5.88;;;;;;;;;;5006531;28;20120;-69
2022/04/13 04:03:35;;;;;;;12.02;6.72;;;;;;;;;;5010451;28;20415;-69
2022/04/13 04:06:01;;;;;;;12.38;6.38;;;;;;;;;;5006405;28;20030;-69
2022/04/13 04:08:28;;;;;;;11.93;6.45;;;;;;;;;;5006237;28;20117;-68
2022/04/13 04:10:53;;;;;;;13.05;6.93;;;;;;;;;;5006210;28;20540;-68
2022/04/13 04:13:19;;;;;;;11.52;5.90;;;;;;;;;;5006727;28;20053;-69
2022/04/13 04:15:45;;;;;;;11.43;6.82;;;;;;;;;;5006395;28;20048;-70
2022/04/13 04:18:10;;;;;;;13.00;6.85;;;;;;;;;;5006847;28;20033;-69
2022/04/13 04:20:35;;;;;;;13.60;6.50;;;;;;;;;;5006545;28;20049;-69
2022/04/13 04:23:01;;;;;;;9.52;6.13;;;;;;;;;;5005631;28;20026;-69
2022/04/13 04:25:26;;;;;;;11.50;6.20;;;;;;;;;;5010061;28;20042;-69
2022/04/13 04:27:51;;;;;;;13.93;6.82;;;;;;;;;;5009999;28;20545;-69
2022/04/13 04:30:17;;;;;;;11.00;6.97;;;;;;;;;;5010516;28;20040;-69
2022/04/13 04:32:42;;;;;;;12.32;6.47;;;;;;;;;;5009982;28;20038;-69
2022/04/13 04:35:08;;;;;;;11.30;6.68;;;;;;;;;;5009510;28;20100;-69
2022/04/13 04:37:34;;;;;;;10.95;6.15;;;;;;;;;;5009627;28;20034;-69
2022/04/13 04:39:59;;;;;;;10.43;6.63;;;;;;;;;;5007961;28;20129;-69
2022/04/13 04:42:27;;;;;;;12.68;7.35;;;;;;;;;;5010477;28;20061;-69
2022/04/13 04:44:59;;;;;;;13.25;7.40;;;;;;;;;;5011015;28;20045;-69
2022/04/13 04:47:25;;;;;;;15.63;8.05;;;;;;;;;;5010002;28;20045;-69
2022/04/13 04:49:50;;;;;;;15.65;8.32;;;;;;;;;;5009187;28;20125;-69
2022/04/13 04:52:16;;;;;;;14.15;8.38;;;;;;;;;;5008974;28;20128;-70
2022/04/13 04:54:41;;;;;;;21.25;10.00;;;;;;;;;;5007530;28;20484;-69
2022/04/13 04:57:08;;;;;;;17.40;8.32;;;;;;;;;;5009579;28;20073;-69
2022/04/13 04:59:34;;;;;;;18.02;8.73;;;;;;;;;;5009593;28;20049;-69
2022/04/13 05:01:59;;;;;;;18.02;9.80;;;;;;;;;;5006836;28;20037;-69
2022/04/13 05:04:25;;;;;;;15.10;8.48;;;;;;;;;;5017885;28;20079;-69
2022/04/13 05:06:50;;;;;;;16.58;8.65;;;;;;;;;;5009121;28;20029;-69
2022/04/13 05:09:17;;;;;;;20.48;8.73;;;;;;;;;;5009335;28;20018;-69
2022/04/13 05:11:43;;;;;;;18.52;8.93;;;;;;;;;;5009374;28;20045;-69
2022/04/13 05:14:08;;;;;;;17.70;9.20;;;;;;;;;;5008468;28;20049;-69
2022/04/13 05:16:34;;;;;;;19.75;8.75;;;;;;;;;;5009553;28;20042;-69
2022/04/13 05:19:00;;;;;;;14.40;7.85;;;;;;;;;;5009051;28;20022;-70
2022/04/13 05:21:25;;;;;;;18.88;8.43;;;;;;;;;;5009835;28;20026;-69
2022/04/13 05:23:50;;;;;;;17.92;8.43;;;;;;;;;;5008911;28;20048;-69
2022/04/13 05:26:18;;;;;;;15.95;8.38;;;;;;;;;;5006270;28;20069;-69
2022/04/13 05:28:44;;;;;;;11.32;7.47;;;;;;;;;;5007476;28;20033;-69
2022/04/13 05:31:09;;;;;;;16.08;8.27;;;;;;;;;;5008556;28;20046;-69
2022/04/13 05:33:34;;;;;;;14.02;8.10;;;;;;;;;;5009325;28;20109;-70
2022/04/13 05:36:00;;;;;;;17.48;8.25;;;;;;;;;;5007863;28;20046;-69
2022/04/13 05:38:25;;;;;;;14.25;7.53;;;;;;;;;;5008683;28;20112;-69
2022/04/13 05:40:50;;;;;;;16.08;7.93;;;;;;;;;;5006213;28;20091;-69
2022/04/13 05:43:16;;;;;;;16.60;8.30;;;;;;;;;;5009191;28;20048;-69
2022/04/13 05:45:41;;;;;;;15.25;8.43;;;;;;;;;;5008431;28;20435;-69
2022/04/13 05:48:06;;;;;;;15.90;8.15;;;;;;;;;;5007562;28;20041;-69
2022/04/13 05:50:32;;;;;;;18.40;8.30;;;;;;;;;;5008151;28;20052;-69
2022/04/13 05:52:57;;;;;;;14.75;7.85;;;;;;;;;;5000590;28;20168;-69
2022/04/13 05:55:23;;;;;;;17.77;8.32;;;;;;;;;;5007804;28;20431;-69
2022/04/13 05:57:48;;;;;;;16.38;8.00;;;;;;;;;;5004735;28;20385;-69
2022/04/13 06:00:14;;;;;;;17.02;8.35;;;;;;;;;;5006500;28;20026;-70
2022/04/13 06:02:41;;;;;;;16.00;7.82;;;;;;;;;;5013156;28;20052;-69
2022/04/13 06:05:08;;;;;;;16.05;8.18;;;;;;;;;;5011010;28;20046;-69
2022/04/13 06:07:34;;;;;;;14.45;8.35;;;;;;;;;;5008058;28;20092;-69
2022/04/13 06:10:01;;;;;;;17.27;8.15;;;;;;;;;;5004786;28;20030;-70
2022/04/13 06:12:27;;;;;;;18.33;9.38;;;;;;;;;;5000528;28;20049;-69
2022/04/13 06:15:00;;;;;;;20.58;8.63;;;;;;;;;;5008450;28;20046;-69
2022/04/13 06:17:25;;;;;;;16.75;8.23;;;;;;;;;;5007640;28;20037;-69
2022/04/13 06:19:50;;;;;;;12.88;7.57;;;;;;;;;;5005693;28;20041;-69
2022/04/13 06:22:16;;;;;;;15.38;8.07;;;;;;;;;;5002609;28;20049;-69
2022/04/13 06:24:41;;;;;;;16.50;7.85;;;;;;;;;;5008362;28;20033;-69
2022/04/13 06:27:06;;;;;;;14.45;8.07;;;;;;;;;;5017102;28;20053;-69
2022/04/13 06:29:32;;;;;;;19.65;8.18;;;;;;;;;;5009112;28;20038;-69
2022/04/13 06:31:57;;;;;;;16.27;8.25;;;;;;;;;;5006147;28;20042;-69
2022/04/13 06:34:23;;;;;;;17.40;8.23;;;;;;;;;;5011848;28;20132;-69
2022/04/13 06:36:48;;;;;;;14.40;8.55;;;;;;;;;;5007372;28;20041;-69
2022/04/13 06:39:13;;;;;;;19.98;8.65;;;;;;;;;;5006959;28;20447;-66
2022/04/13 06:41:39;;;;;;;16.33;8.40;;;;;;;;;;5003268;28;20050;-69
2022/04/13 06:44:04;;;;;;;18.92;8.75;;;;;;;;;;4998359;28;20057;-69
2022/04/13 06:46:31;;;;;;;14.93;8.43;;;;;;;;;;5005312;28;20053;-69
2022/04/13 06:48:58;;;;;;;16.83;8.38;;;;;;;;;;5005412;28;20491;-69
2022/04/13 06:51:24;;;;;;;19.60;8.43;;;;;;;;;;5006392;28;20033;-69
2022/04/13 06:53:49;;;;;;;16.42;9.25;;;;;;;;;;5005826;28;20554;-70
2022/04/13 06:56:14;;;;;;;14.50;8.63;;;;;;;;;;5009781;28;20041;-70
2022/04/13 06:58:41;;;;;;;18.58;8.32;;;;;;;;;;5006530;28;20042;-69
2022/04/13 07:01:08;;;;;;;15.15;8.27;;;;;;;;;;5002499;28;20049;-70
2022/04/13 07:03:34;;;;;;;16.35;8.05;;;;;;;;;;5006444;28;20132;-70
2022/04/13 07:05:59;;;;;;;16.13;9.07;;;;;;;;;;5006106;28;20133;-70
2022/04/13 07:08:24;;;;;;;26.95;8.93;;;;;;;;;;5005855;28;20187;-70
2022/04/13 07:10:50;;;;;;;14.75;8.55;;;;;;;;;;5004364;28;20072;-69
2022/04/13 07:13:16;;;;;;;17.02;8.70;;;;;;;;;;5008314;28;20063;-70
2022/04/13 07:15:42;;;;;;;18.25;10.15;;;;;;;;;;5014391;28;20033;-70
2022/04/13 07:18:09;;;;;;;16.08;8.27;;;;;;;;;;5007323;28;20065;-69
2022/04/13 07:20:34;;;;;;;14.63;8.35;;;;;;;;;;5003721;28;20838;-69
2022/04/13 07:22:59;;;;;;;16.90;8.98;;;;;;;;;;5007364;28;20140;-69
2022/04/13 07:25:25;;;;;;;17.00;8.18;;;;;;;;;;5013250;28;20041;-69
2022/04/13 07:27:51;;;;;;;17.38;8.10;;;;;;;;;;5007012;28;20038;-70
2022/04/13 07:30:17;;;;;;;16.45;7.82;;;;;;;;;;5008350;28;20539;-69
2022/04/13 07:32:45;;;;;;;14.50;8.52;;;;;;;;;;5001736;28;20732;-69
2022/04/13 07:35:10;;;;;;;23.83;8.95;;;;;;;;;;4997879;28;20042;-70
2022/04/13 07:37:39;;;;;;;16.20;8.52;;;;;;;;;;5000993;28;20037;-69
2022/04/13 07:40:06;;;;;;;16.65;8.00;;;;;;;;;;5000960;28;20058;-69
2022/04/13 07:42:32;;;;;;;18.70;8.68;;;;;;;;;;5005893;28;20037;-70
2022/04/13 07:45:02;;;;;;;17.67;8.85;;;;;;;;;;5002736;28;20072;-70
2022/04/13 07:47:27;;;;;;;15.52;8.52;;;;;;;;;;5005762;28;20412;-70
2022/04/13 07:49:54;;;;;;;18.80;8.85;;;;;;;;;;5004566;28;20529;-69
2022/04/13 07:52:19;;;;;;;18.30;9.05;;;;;;;;;;5007660;28;20038;-69
2022/04/13 07:54:44;;;;;;;16.67;8.00;;;;;;;;;;5005154;28;20037;-70
2022/04/13 07:57:10;;;;;;;15.73;9.05;;;;;;;;;;4996907;28;20045;-69
2022/04/13 07:59:36;;;;;;;15.27;8.32;;;;;;;;;;5006249;28;20125;-69
2022/04/13 08:02:02;;;;;;;16.00;8.88;;;;;;;;;;5010982;28;20042;-70
2022/04/13 08:04:28;;;;;;;13.68;7.78;;;;;;;;;;5011165;28;20109;-69
2022/04/13 08:06:54;;;;;;;17.73;8.73;;;;;;;;;;5014588;28;20108;-70
2022/04/13 08:09:19;;;;;;;15.23;8.90;;;;;;;;;;5009890;28;20033;-69
2022/04/13 08:11:45;;;;;;;16.90;8.98;;;;;;;;;;5011929;28;20049;-69
2022/04/13 08:14:11;;;;;;;16.25;8.95;;;;;;;;;;5017545;28;20546;-69
2022/04/13 08:16:36;;;;;;;18.67;10.07;;;;;;;;;;5011878;28;20034;-70
2022/04/13 08:19:02;;;;;;;14.88;8.70;;;;;;;;;;5005598;28;20117;-70
2022/04/13 08:21:27;;;;;;;16.25;9.20;;;;;;;;;;4988698;28;20037;-70
2022/04/13 08:23:53;;;;;;;18.30;9.75;;;;;;;;;;4988250;28;20048;-71
2022/04/13 08:26:18;;;;;;;21.40;10.00;;;;;;;;;;4989546;28;20062;-71
2022/04/13 08:28:43;;;;;;;20.38;9.88;;;;;;;;;;4983358;28;20070;-71
2022/04/13 08:31:09;;;;;;;17.95;10.20;;;;;;;;;;4985105;28;20046;-71
2022/04/13 08:33:35;;;;;;;18.45;9.85;;;;;;;;;;4987511;28;20086;-72
2022/04/13 08:36:01;;;;;;;15.70;8.98;;;;;;;;;;4990205;28;20121;-70
2022/04/13 08:38:26;;;;;;;19.27;10.18;;;;;;;;;;4989713;28;20141;-70
2022/04/13 08:41:02;;;;;;;18.67;9.73;;;;;;;;;;4987796;28;20037;-70
2022/04/13 08:43:43;;;;;;;20.42;10.05;;;;;;;;;;4989642;28;20045;-70
2022/04/13 08:46:13;;;;;;;18.30;9.77;;;;;;;;;;4985825;28;20069;-69
2022/04/13 08:48:40;;;;;;;35.45;13.52;;;;;;;;;;4990082;28;20435;-71
2022/04/13 08:51:10;;;;;;;144.73;31.52;;;;;;;;;;4987344;28;20038;-71
2022/04/13 08:53:37;;;;;;;79.38;19.90;;;;;;;;;;4987751;28;20499;-71
2022/04/13 08:56:03;;;;;;;37.00;14.98;;;;;;;;;;5001548;28;20545;-71
2022/04/13 08:58:46;;;;;;;19.17;10.40;;;;;;;;;;5020671;28;20038;-71
2022/04/13 09:01:25;;;;;;;;;;;;;;;;;;5003286;28;20034;-71
2022/04/13 09:03:54;;;;;;;21.23;10.35;;;;;;;;;;4993802;28;19921;-71
2022/04/13 09:06:20;;;;;;;21.45;10.88;;;;;;;;;;5011136;28;20038;-71
2022/04/13 09:08:52;;;;;;;22.85;11.40;;;;;;;;;;5010752;28;20044;-72
2022/04/13 09:11:22;;;;;;;20.33;10.73;;;;;;;;;;5005667;28;20076;-71
2022/04/13 09:13:49;;;;;;;21.02;10.65;;;;;;;;;;5008472;28;20034;-72
2022/04/13 09:16:15;;;;;;;22.27;11.05;;;;;;;;;;5008077;28;20038;-73
2022/04/13 09:18:41;;;;;;;21.52;11.80;;;;;;;;;;5009454;28;20079;-71
2022/04/13 09:21:07;;;;;;;19.15;11.50;;;;;;;;;;5012224;28;20744;-74
2022/04/13 09:23:32;;;;;;;22.10;11.95;;;;;;;;;;5012320;28;20034;-71
2022/04/13 09:25:58;;;;;;;21.83;12.82;;;;;;;;;;5010030;28;20077;-71
2022/04/13 09:28:25;;;;;;;23.73;12.27;;;;;;;;;;5008666;28;20037;-71
2022/04/13 09:30:52;;;;;;;20.05;11.48;;;;;;;;;;5008068;28;20037;-71
2022/04/13 09:33:18;;;;;;;24.02;12.23;;;;;;;;;;5002749;28;20480;-75
2022/04/13 09:35:44;;;;;;;24.88;13.60;;;;;;;;;;5007832;28;20061;-71
2022/04/13 09:38:09;;;;;;;21.20;12.30;;;;;;;;;;5006589;28;20048;-70
2022/04/13 09:40:40;;;;;;;30.65;13.73;;;;;;;;;;5009645;28;20065;-70
2022/04/13 09:43:17;;;;;;;27.42;13.75;;;;;;;;;;5007125;28;20550;-70
2022/04/13 09:45:45;;;;;;;30.58;14.60;;;;;;;;;;5006483;28;20025;-69
2022/04/13 09:48:15;;;;;;;29.05;16.20;;;;;;;;;;5006986;28;20033;-69
2022/04/13 09:50:43;;;;;;;34.97;15.93;;;;;;;;;;5004466;28;20065;-70
2022/04/13 09:53:10;;;;;;;30.30;15.73;;;;;;;;;;5006312;28;20128;-69
2022/04/13 09:55:39;;;;;;;34.72;16.60;;;;;;;;;;4992351;28;20129;-73
2022/04/13 09:58:07;;;;;;;37.50;18.35;;;;;;;;;;5002733;28;20184;-73
2022/04/13 10:00:34;;;;;;;30.77;16.00;;;;;;;;;;5006727;28;20022;-69
2022/04/13 10:03:25;;;;;;;32.13;16.27;;;;;;;;;;4995123;28;20184;-70
2022/04/13 10:05:52;;;;;;;29.65;15.20;;;;;;;;;;5004091;28;20045;-69
2022/04/13 10:08:23;;;;;;;27.05;14.68;;;;;;;;;;5005113;28;20068;-68
2022/04/13 10:10:50;;;;;;;32.63;16.25;;;;;;;;;;5004707;28;20479;-68
2022/04/13 10:13:32;;;;;;;28.45;15.23;;;;;;;;;;5003523;28;20038;-70
2022/04/13 10:16:03;;;;;;;29.45;16.08;;;;;;;;;;5000358;28;20060;-74
2022/04/13 10:18:31;;;;;;;29.27;15.73;;;;;;;;;;5004824;28;20510;-71
2022/04/13 10:20:56;;;;;;;33.08;16.45;;;;;;;;;;5007130;28;20092;-71
2022/04/13 10:23:22;;;;;;;29.23;16.58;;;;;;;;;;5007241;28;20046;-71
2022/04/13 10:25:47;;;;;;;31.58;15.95;;;;;;;;;;5002532;28;20116;-71
2022/04/13 10:28:20;;;;;;;36.28;17.25;;;;;;;;;;4999567;28;20476;-72
2022/04/13 10:30:47;;;;;;;31.73;16.55;;;;;;;;;;5002803;28;20022;-71
2022/04/13 10:33:14;;;;;;;36.47;17.10;;;;;;;;;;4999603;28;20032;-71
2022/04/13 10:35:44;;;;;;;32.83;17.02;;;;;;;;;;5009349;28;20410;-75
2022/04/13 10:38:12;;;;;;;30.52;16.65;;;;;;;;;;5008671;28;20260;-74
2022/04/13 10:40:40;;;;;;;31.70;16.02;;;;;;;;;;5005023;28;20468;-75
2022/04/13 10:43:07;;;;;;;31.13;16.13;;;;;;;;;;5013392;28;20041;-75
2022/04/13 10:45:35;;;;;;;28.85;15.27;;;;;;;;;;5004127;28;20096;-73
2022/04/13 10:48:11;;;;;;;28.30;15.57;;;;;;;;;;4996256;28;20089;-75
2022/04/13 10:50:57;;;;;;;28.63;15.45;;;;;;;;;;4985761;28;20045;-72
2022/04/13 10:53:29;;;;;;;30.77;15.80;;;;;;;;;;5010935;28;20034;-72
2022/04/13 10:56:03;;;;;;;23.38;14.23;;;;;;;;;;5002265;28;20034;-72
2022/04/13 10:58:52;;;;;;;24.55;14.65;;;;;;;;;;4999512;28;20038;-74
2022/04/13 11:01:20;;;;;;;24.35;13.85;;;;;;;;;;5002264;28;20092;-74
2022/04/13 11:03:46;;;;;;;22.25;12.18;;;;;;;;;;5003297;28;20057;-75
2022/04/13 11:06:13;;;;;;;18.90;11.35;;;;;;;;;;5004529;28;20025;-74
2022/04/13 11:08:56;;;;;;;17.75;10.63;;;;;;;;;;5005920;28;20057;-73
2022/04/13 11:11:23;;;;;;;16.80;10.43;;;;;;;;;;5006986;28;20128;-74
2022/04/13 11:13:49;;;;;;;16.27;9.55;;;;;;;;;;5002087;28;20038;-73
2022/04/13 11:16:27;;;;;;;15.02;10.15;;;;;;;;;;5002216;28;20034;-73
2022/04/13 11:19:03;;;;;;;16.17;9.68;;;;;;;;;;5002528;28;20057;-72
2022/04/13 11:21:31;;;;;;;16.35;9.68;;;;;;;;;;5009019;28;20022;-71
2022/04/13 11:23:57;;;;;;;17.77;9.18;;;;;;;;;;5004277;28;20079;-73
2022/04/13 11:26:34;;;;;;;16.50;9.80;;;;;;;;;;5013177;28;20056;-72
2022/04/13 11:29:09;;;;;;;22.65;11.88;;;;;;;;;;5001648;28;20650;-72
2022/04/13 11:31:59;;;;;;;25.08;13.70;;;;;;;;;;4996852;28;20069;-72
2022/04/13 11:34:37;;;;;;;24.80;13.55;;;;;;;;;;5005037;28;20039;-71
2022/04/13 11:37:05;;;;;;;22.88;12.68;;;;;;;;;;5006903;28;20044;-72
2022/04/13 11:40:06;;;;;;;19.80;11.00;;;;;;;;;;5011477;28;20056;-72
2022/04/13 11:42:38;;;;;;;15.27;9.95;;;;;;;;;;5010846;28;20060;-72
2022/04/13 11:45:07;;;;;;;16.15;10.45;;;;;;;;;;5008280;28;20041;-68
2022/04/13 11:47:41;;;;;;;18.05;10.93;;;;;;;;;;5008044;28;20037;-70
2022/04/13 11:50:12;;;;;;;;;;;;;;;;;;4985466;28;20043;-70
2022/04/13 11:52:54;;;;;;;16.95;11.10;;;;;;;;;;4981914;28;20400;-74
2022/04/13 11:55:26;;;;;;;21.33;12.30;;;;;;;;;;4992022;28;20043;-70
2022/04/13 11:58:07;;;;;;;24.52;11.68;;;;;;;;;;4990281;28;20212;-72
2022/04/13 12:00:52;;;;;;;21.83;12.18;;;;;;;;;;4980724;28;20038;-71
2022/04/13 12:03:47;;;;;;;23.45;12.80;;;;;;;;;;4999339;28;20061;-71
2022/04/13 12:06:15;;;;;;;19.60;11.82;;;;;;;;;;5015664;28;20060;-72
2022/04/13 12:08:50;;;;;;;23.02;12.63;;;;;;;;;;5007619;28;20061;-74
2022/04/13 12:11:20;;;;;;;21.52;11.35;;;;;;;;;;5010792;28;20042;-71
2022/04/13 12:13:46;;;;;;;18.65;10.50;;;;;;;;;;5009799;28;20033;-70
2022/04/13 12:16:17;;;;;;;21.17;11.15;;;;;;;;;;5011085;28;20034;-70
2022/04/13 12:18:42;;;;;;;22.83;11.50;;;;;;;;;;5010869;28;20025;-70
2022/04/13 12:21:10;;;;;;;22.13;10.75;;;;;;;;;;5006061;28;20423;-71
2022/04/13 12:23:37;;;;;;;23.60;12.23;;;;;;;;;;5002260;28;20890;-70
2022/04/13 12:26:03;;;;;;;18.75;11.48;;;;;;;;;;5000315;28;20041;-70
2022/04/13 12:28:28;;;;;;;22.15;11.65;;;;;;;;;;5008457;28;20033;-70
2022/04/13 12:31:00;;;;;;;22.05;11.18;;;;;;;;;;5013425;28;20026;-70
2022/04/13 12:33:27;;;;;;;25.60;13.18;;;;;;;;;;5022813;28;20045;-70
2022/04/13 12:36:01;;;;;;;21.50;12.10;;;;;;;;;;5012069;28;20026;-73
2022/04/13 12:38:46;;;;;;;21.23;12.25;;;;;;;;;;5011423;28;20044;-70
2022/04/13 12:41:16;;;;;;;21.95;12.05;;;;;;;;;;5014130;28;20033;-69
2022/04/13 12:44:00;;;;;;;20.75;11.20;;;;;;;;;;5011096;28;20064;-71
2022/04/13 12:46:27;;;;;;;18.60;10.82;;;;;;;;;;5006669;28;20561;-71
2022/04/13 12:48:57;;;;;;;20.05;10.98;;;;;;;;;;5013714;28;20032;-70
2022/04/13 12:51:24;;;;;;;17.90;10.75;;;;;;;;;;5007982;28;20033;-72
2022/04/13 12:53:51;;;;;;;17.35;10.40;;;;;;;;;;5007050;28;20086;-70
2022/04/13 12:56:23;;;;;;;15.43;9.40;;;;;;;;;;5007676;28;20034;-70
2022/04/13 12:58:49;;;;;;;14.60;8.93;;;;;;;;;;5005433;28;20046;-71
2022/04/13 13:01:29;;;;;;;15.23;8.98;;;;;;;;;;5003843;28;20093;-70
2022/04/13 13:04:12;;;;;;;16.92;8.88;;;;;;;;;;4997265;28;20046;-69
2022/04/13 13:06:53;;;;;;;19.40;9.45;;;;;;;;;;5003254;28;20022;-72
2022/04/13 13:09:22;;;;;;;16.73;9.20;;;;;;;;;;4997445;28;20786;-71
2022/04/13 13:11:59;;;;;;;15.18;9.10;;;;;;;;;;5002122;28;20026;-70
2022/04/13 13:14:35;;;;;;;16.75;9.35;;;;;;;;;;5006141;28;20034;-70
2022/04/13 13:17:34;;;;;;;17.42;9.82;;;;;;;;;;5007259;28;20029;-69
2022/04/13 13:20:09;;;;;;;15.80;8.40;;;;;;;;;;4995710;28;20509;-70
2022/04/13 13:22:39;;;;;;;14.57;8.82;;;;;;;;;;4987302;28;20042;-69
2022/04/13 13:25:06;;;;;;;14.57;9.02;;;;;;;;;;4982227;28;20053;-70
2022/04/13 13:27:38;;;;;;;15.05;8.65;;;;;;;;;;4974011;28;20023;-70
2022/04/13 13:30:12;;;;;;;14.38;8.88;;;;;;;;;;4974188;28;20050;-70
2022/04/13 13:32:57;;;;;;;15.68;8.90;;;;;;;;;;4977455;28;20607;-70
2022/04/13 13:35:27;;;;;;;15.90;8.90;;;;;;;;;;4976240;28;20123;-70
2022/04/13 13:37:53;;;;;;;14.90;8.93;;;;;;;;;;4983529;28;20049;-71
2022/04/13 13:40:35;;;;;;;19.50;10.43;;;;;;;;;;4980048;28;20050;-69
2022/04/13 13:43:02;;;;;;;16.33;10.27;;;;;;;;;;4982780;28;20101;-68
2022/04/13 13:45:32;;;;;;;17.85;10.07;;;;;;;;;;4968972;28;20026;-69
2022/04/13 13:47:58;;;;;;;17.52;9.93;;;;;;;;;;4998862;28;20038;-68
2022/04/13 13:50:24;;;;;;;17.42;9.48;;;;;;;;;;4986249;28;20507;-68
2022/04/13 13:52:50;;;;;;;15.35;8.63;;;;;;;;;;4984531;28;20034;-69
2022/04/13 13:55:29;;;;;;;14.38;8.40;;;;;;;;;;4981006;28;20122;-68
2022/04/13 13:57:56;;;;;;;13.63;8.50;;;;;;;;;;4983941;28;20425;-69
2022/04/13 14:00:22;;;;;;;16.42;8.95;;;;;;;;;;5001275;28;20488;-69
2022/04/13 14:02:52;;;;;;;14.55;8.43;;;;;;;;;;5000206;28;20054;-69
2022/04/13 14:05:22;;;;;;;14.10;8.40;;;;;;;;;;4998817;28;20039;-69
2022/04/13 14:07:48;;;;;;;13.82;7.82;;;;;;;;;;5002724;28;20846;-69
2022/04/13 14:10:13;;;;;;;14.52;8.57;;;;;;;;;;4995125;28;20062;-69
2022/04/13 14:12:38;;;;;;;13.02;7.75;;;;;;;;;;4996591;28;20021;-68
2022/04/13 14:15:04;;;;;;;15.93;9.15;;;;;;;;;;5006412;28;20042;-69
2022/04/13 14:17:30;;;;;;;14.30;8.60;;;;;;;;;;5008077;28;20034;-69
2022/04/13 14:19:56;;;;;;;16.35;8.73;;;;;;;;;;5005395;28;20514;-70
2022/04/13 14:22:21;;;;;;;14.35;8.63;;;;;;;;;;5008142;28;20758;-68
2022/04/13 14:24:47;;;;;;;14.75;8.95;;;;;;;;;;5003328;28;20028;-67
2022/04/13 14:27:12;;;;;;;16.38;9.70;;;;;;;;;;5011474;28;20022;-68
2022/04/13 14:29:38;;;;;;;12.45;7.55;;;;;;;;;;5003983;28;20052;-69
2022/04/13 14:32:03;;;;;;;15.70;8.18;;;;;;;;;;5004682;28;20049;-69